AEE629 ELLX-LGAV
Flight info
| Callsign | AEE629 |
|---|---|
| Flight time | N/A |
| Altitude | 23000 |
| Route | GTQ A242 POGOL/N0449F390 DCT LASAT DCT BEGAR DCT TRA DCT GAMSA DCT GEDSO DCT VEKEN DCT MAXUR DCT MONID DCT RIVUS DCT OSLUD DCT GORAV DCT MODRA DCT MEDUX UM867 KOGAT DCT TALAS DCT SIGFO UM749 ROPOX |
| Aircraft | A20N/M-SDE2E3FGHIRWXY/LB1 |
Departure
| Time | 2026-04-28 09:02 |
|---|---|
| Airport | Luxembourg-Findel International Airport (ELLX) |
Arrival
| Time | N/A |
|---|---|
| Airport | Athens Eleftherios Venizelos International Airport (LGAV) |
| Time | Latitude | Longitude | Altitude | Speed | Heading |
|---|---|---|---|---|---|
| 2026-04-28 08:48 | 49.63369 | 6.21738 | 1229 ft | 0 kts | 329° |
| 2026-04-28 08:48 | 49.63369 | 6.21739 | 1229 ft | 0 kts | 329° |
| 2026-04-28 08:50 | 49.63360 | 6.21746 | 1229 ft | 1 kts | 329° |
| 2026-04-28 08:50 | 49.63352 | 6.21754 | 1228 ft | 2 kts | 323° |
| 2026-04-28 08:51 | 49.63341 | 6.21771 | 1228 ft | 2 kts | 301° |
| 2026-04-28 08:51 | 49.63336 | 6.21792 | 1228 ft | 2 kts | 281° |
| 2026-04-28 08:51 | 49.63335 | 6.21816 | 1228 ft | 2 kts | 262° |
| 2026-04-28 08:51 | 49.63338 | 6.21836 | 1228 ft | 0 kts | 244° |
| 2026-04-28 08:52 | 49.63341 | 6.21845 | 1228 ft | 1 kts | 239° |
| 2026-04-28 08:52 | 49.63342 | 6.21847 | 1228 ft | 0 kts | 240° |
| 2026-04-28 08:54 | 49.63341 | 6.21842 | 1228 ft | 1 kts | 240° |
| 2026-04-28 08:55 | 49.63330 | 6.21814 | 1228 ft | 4 kts | 236° |
| 2026-04-28 08:55 | 49.63290 | 6.21814 | 1228 ft | 8 kts | 151° |
| 2026-04-28 08:55 | 49.63223 | 6.21874 | 1226 ft | 12 kts | 149° |
| 2026-04-28 08:55 | 49.63155 | 6.21888 | 1225 ft | 11 kts | 227° |
| 2026-04-28 08:56 | 49.63118 | 6.21779 | 1227 ft | 12 kts | 245° |
| 2026-04-28 08:56 | 49.63080 | 6.21653 | 1229 ft | 13 kts | 245° |
| 2026-04-28 08:56 | 49.63039 | 6.21519 | 1231 ft | 14 kts | 244° |
| 2026-04-28 08:56 | 49.62995 | 6.21378 | 1233 ft | 15 kts | 244° |
| 2026-04-28 08:57 | 49.62949 | 6.21227 | 1235 ft | 16 kts | 244° |
| 2026-04-28 08:57 | 49.62899 | 6.21067 | 1236 ft | 17 kts | 244° |
| 2026-04-28 08:57 | 49.62846 | 6.20898 | 1237 ft | 17 kts | 244° |
| 2026-04-28 08:57 | 49.62784 | 6.20732 | 1237 ft | 18 kts | 230° |
| 2026-04-28 08:58 | 49.62684 | 6.20603 | 1235 ft | 19 kts | 220° |
| 2026-04-28 08:58 | 49.62586 | 6.20443 | 1231 ft | 21 kts | 229° |
| 2026-04-28 08:58 | 49.62488 | 6.20251 | 1225 ft | 24 kts | 238° |
| 2026-04-28 08:58 | 49.62396 | 6.20008 | 1214 ft | 27 kts | 240° |
| 2026-04-28 08:59 | 49.62305 | 6.19760 | 1205 ft | 21 kts | 241° |
| 2026-04-28 08:59 | 49.62228 | 6.19551 | 1196 ft | 22 kts | 240° |
| 2026-04-28 08:59 | 49.62146 | 6.19334 | 1189 ft | 25 kts | 239° |
| 2026-04-28 08:59 | 49.62053 | 6.19086 | 1178 ft | 27 kts | 240° |
| 2026-04-28 09:00 | 49.61974 | 6.18872 | 1170 ft | 20 kts | 238° |
| 2026-04-28 09:00 | 49.61872 | 6.18729 | 1163 ft | 20 kts | 210° |
| 2026-04-28 09:00 | 49.61784 | 6.18742 | 1161 ft | 9 kts | 149° |
| 2026-04-28 09:00 | 49.61765 | 6.18794 | 1162 ft | 4 kts | 66° |
| 2026-04-28 09:01 | 49.61776 | 6.18822 | 1164 ft | 3 kts | 57° |
| 2026-04-28 09:01 | 49.61839 | 6.18982 | 1172 ft | 46 kts | 60° |
| 2026-04-28 09:01 | 49.62110 | 6.19719 | 1199 ft | 110 kts | 60° |
| 2026-04-28 09:01 | 49.62586 | 6.20985 | 1263 ft | 158 kts | 62° |
| 2026-04-28 09:02 | 49.63108 | 6.22481 | 1856 ft | 159 kts | 62° |
| 2026-04-28 09:02 | 49.63632 | 6.23931 | 2616 ft | 156 kts | 60° |
| 2026-04-28 09:02 | 49.64050 | 6.25420 | 3325 ft | 153 kts | 87° |
| 2026-04-28 09:02 | 49.63673 | 6.26932 | 3885 ft | 163 kts | 127° |
| 2026-04-28 09:03 | 49.62860 | 6.28158 | 4474 ft | 168 kts | 132° |
| 2026-04-28 09:03 | 49.61971 | 6.29428 | 4882 ft | 184 kts | 133° |
| 2026-04-28 09:03 | 49.61018 | 6.30872 | 5297 ft | 200 kts | 131° |
| 2026-04-28 09:03 | 49.60033 | 6.32476 | 5710 ft | 216 kts | 130° |
| 2026-04-28 09:04 | 49.58955 | 6.34294 | 6049 ft | 240 kts | 130° |
| 2026-04-28 09:04 | 49.57801 | 6.36263 | 6576 ft | 256 kts | 130° |
| 2026-04-28 09:04 | 49.56586 | 6.38296 | 7234 ft | 266 kts | 135° |
| 2026-04-28 09:04 | 49.55111 | 6.40062 | 8042 ft | 271 kts | 148° |
| 2026-04-28 09:05 | 49.53433 | 6.41380 | 8868 ft | 275 kts | 154° |
| 2026-04-28 09:05 | 49.51706 | 6.42577 | 9665 ft | 279 kts | 155° |
| 2026-04-28 09:05 | 49.49937 | 6.43786 | 10468 ft | 282 kts | 156° |
| 2026-04-28 09:05 | 49.48106 | 6.45040 | 10962 ft | 296 kts | 156° |
| 2026-04-28 09:06 | 49.46156 | 6.46382 | 11330 ft | 315 kts | 156° |
| 2026-04-28 09:06 | 49.44110 | 6.47795 | 11670 ft | 332 kts | 156° |
| 2026-04-28 09:06 | 49.42002 | 6.49252 | 12252 ft | 340 kts | 156° |
| 2026-04-28 09:06 | 49.39849 | 6.50740 | 12977 ft | 344 kts | 156° |
| 2026-04-28 09:07 | 49.37666 | 6.52248 | 13663 ft | 348 kts | 156° |
| 2026-04-28 09:07 | 49.35424 | 6.53797 | 14329 ft | 353 kts | 156° |
| 2026-04-28 09:07 | 49.33207 | 6.55329 | 14993 ft | 356 kts | 156° |
| 2026-04-28 09:07 | 49.30915 | 6.56908 | 15649 ft | 360 kts | 156° |
| 2026-04-28 09:08 | 49.28631 | 6.58479 | 16290 ft | 364 kts | 156° |
| 2026-04-28 09:08 | 49.26347 | 6.60051 | 17042 ft | 364 kts | 156° |
| 2026-04-28 09:08 | 49.23998 | 6.61547 | 17715 ft | 366 kts | 160° |
| 2026-04-28 09:08 | 49.21572 | 6.62813 | 18322 ft | 369 kts | 165° |
| 2026-04-28 09:09 | 49.19104 | 6.63828 | 18916 ft | 371 kts | 167° |
| 2026-04-28 09:09 | 49.16578 | 6.64783 | 19508 ft | 375 kts | 167° |
| 2026-04-28 09:09 | 49.14034 | 6.65745 | 20082 ft | 378 kts | 168° |
| 2026-04-28 09:09 | 49.11988 | 6.66521 | 20535 ft | 381 kts | 168° |
| 2026-04-28 09:10 | 49.09611 | 6.67421 | 21049 ft | 384 kts | 168° |
| 2026-04-28 09:10 | 49.06997 | 6.68412 | 21602 ft | 388 kts | 169° |
| 2026-04-28 09:10 | 49.04371 | 6.69405 | 22139 ft | 391 kts | 169° |
| 2026-04-28 09:10 | 49.01734 | 6.70388 | 22663 ft | 394 kts | 171° |
| 2026-04-28 09:11 | 48.99053 | 6.71102 | 23173 ft | 396 kts | 176° |
| 2026-04-28 09:11 | 48.96288 | 6.71436 | 23671 ft | 398 kts | 182° |
| 2026-04-28 09:11 | 48.93550 | 6.71412 | 24166 ft | 400 kts | 185° |
| 2026-04-28 09:11 | 48.90756 | 6.71298 | 24669 ft | 402 kts | 185° |
| 2026-04-28 09:12 | 48.88226 | 6.71187 | 25121 ft | 404 kts | 186° |
| 2026-04-28 09:12 | 48.85669 | 6.71079 | 25561 ft | 406 kts | 186° |
| 2026-04-28 09:12 | 48.82847 | 6.70961 | 26018 ft | 408 kts | 186° |
| 2026-04-28 09:12 | 48.80018 | 6.70846 | 26462 ft | 411 kts | 186° |
| 2026-04-28 09:13 | 48.77144 | 6.70731 | 26902 ft | 413 kts | 186° |
| 2026-04-28 09:13 | 48.74365 | 6.70623 | 27345 ft | 414 kts | 187° |
| 2026-04-28 09:13 | 48.71536 | 6.70513 | 27750 ft | 415 kts | 187° |
| 2026-04-28 09:13 | 48.68614 | 6.70399 | 28150 ft | 417 kts | 187° |
| 2026-04-28 09:14 | 48.65729 | 6.70286 | 28534 ft | 418 kts | 188° |
| 2026-04-28 09:14 | 48.62811 | 6.70171 | 28907 ft | 420 kts | 187° |
| 2026-04-28 09:14 | 48.59880 | 6.70058 | 29256 ft | 421 kts | 188° |
| 2026-04-28 09:14 | 48.56943 | 6.69945 | 29581 ft | 423 kts | 188° |
| 2026-04-28 09:15 | 48.53995 | 6.69831 | 29868 ft | 425 kts | 188° |
| 2026-04-28 09:15 | 48.51035 | 6.69715 | 30124 ft | 427 kts | 188° |
| 2026-04-28 09:15 | 48.48049 | 6.69600 | 30363 ft | 429 kts | 188° |
| 2026-04-28 09:15 | 48.45053 | 6.69488 | 30709 ft | 429 kts | 188° |
| 2026-04-28 09:16 | 48.42090 | 6.69376 | 31046 ft | 428 kts | 189° |
| 2026-04-28 09:16 | 48.39123 | 6.69261 | 31354 ft | 427 kts | 188° |
| 2026-04-28 09:16 | 48.36155 | 6.69146 | 31655 ft | 427 kts | 188° |
| 2026-04-28 09:16 | 48.33195 | 6.69030 | 31944 ft | 426 kts | 188° |
| 2026-04-28 09:17 | 48.30219 | 6.68916 | 32257 ft | 425 kts | 188° |
| 2026-04-28 09:17 | 48.27267 | 6.68829 | 32543 ft | 427 kts | 186° |
| 2026-04-28 09:17 | 48.24310 | 6.69287 | 32773 ft | 436 kts | 176° |
| 2026-04-28 09:17 | 48.21344 | 6.70543 | 33050 ft | 445 kts | 166° |
| 2026-04-28 09:18 | 48.18537 | 6.72560 | 33327 ft | 453 kts | 156° |
| 2026-04-28 09:18 | 48.15954 | 6.75326 | 33594 ft | 461 kts | 145° |
| 2026-04-28 09:18 | 48.13711 | 6.78757 | 33823 ft | 470 kts | 134° |
| 2026-04-28 09:18 | 48.11859 | 6.82867 | 34034 ft | 478 kts | 123° |
| 2026-04-28 09:19 | 48.10477 | 6.87380 | 34291 ft | 481 kts | 116° |
| 2026-04-28 09:19 | 48.09218 | 6.92062 | 34572 ft | 481 kts | 115° |
| 2026-04-28 09:19 | 48.07997 | 6.96681 | 34788 ft | 480 kts | 115° |
| 2026-04-28 09:19 | 48.06764 | 7.01286 | 35011 ft | 479 kts | 116° |
| 2026-04-28 09:20 | 48.05495 | 7.05950 | 35223 ft | 478 kts | 116° |
| 2026-04-28 09:20 | 48.04228 | 7.10548 | 35420 ft | 478 kts | 116° |
| 2026-04-28 09:20 | 48.02958 | 7.15120 | 35620 ft | 477 kts | 116° |
| 2026-04-28 09:20 | 48.01688 | 7.19679 | 35830 ft | 476 kts | 116° |
| 2026-04-28 09:21 | 48.00409 | 7.24249 | 36051 ft | 475 kts | 116° |